Time;durP1;ratioP1;P1;durP2;ratioP2;P2;SDS_P1;SDS_P2;PMS_P1;PMS_P2;Temp;Humidity;BMP_temperature;BMP_pressure;BME280_temperature;BME280_humidity;BME280_pressure;Samples;Min_cycle;Max_cycle;Signal;HPM_P1;HPM_P2
2023/09/01 00:01:40;;;;;;;;;0.75;0.50;;;;;19.95;70.70;100652.69;5076032;28;45307;-67
2023/09/01 00:04:06;;;;;;;;;3.25;0.00;;;;;19.94;70.85;100658.94;5063811;28;45648;-66
2023/09/01 00:06:31;;;;;;;;;3.00;1.00;;;;;19.94;70.99;100651.84;5070079;28;45249;-67
2023/09/01 00:08:56;;;;;;;;;1.25;1.25;;;;;19.89;70.59;100644.19;5075015;27;45266;-66
2023/09/01 00:11:22;;;;;;;;;0.75;0.75;;;;;19.95;70.64;100642.06;5075591;28;45859;-67
2023/09/01 00:13:48;;;;;;;;;2.00;1.00;;;;;19.99;70.54;100648.84;5069615;28;72887;-67
2023/09/01 00:16:13;;;;;;;;;2.25;0.75;;;;;19.98;70.59;100640.06;5080962;27;46087;-67
2023/09/01 00:18:38;;;;;;;;;5.25;2.00;;;;;20.02;70.33;100643.34;5071971;27;45275;-66
2023/09/01 00:21:04;;;;;;;;;1.00;1.00;;;;;20.03;70.20;100639.75;5073881;28;45447;-68
2023/09/01 00:23:29;;;;;;;;;1.00;1.00;;;;;20.04;70.46;100646.75;5077833;27;66563;-67
2023/09/01 00:25:56;;;;;;;;;2.75;1.00;;;;;20.05;70.52;100648.47;5072854;27;68236;-66
2023/09/01 00:28:22;;;;;;;;;2.00;1.00;;;;;20.03;70.29;100647.72;5072939;27;45382;-66
2023/09/01 00:30:55;;;;;;;;;0.50;0.00;;;;;20.01;70.34;100644.28;5092450;27;45476;-67
2023/09/01 00:33:20;;;;;;;;;1.00;1.00;;;;;19.99;70.40;100639.09;5080677;27;45247;-68
2023/09/01 00:35:49;;;;;;;;;2.75;0.25;;;;;20.01;70.28;100638.97;5068498;27;47067;-68
2023/09/01 00:38:14;;;;;;;;;1.00;1.00;;;;;20.02;70.50;100648.66;5068338;27;45260;-67
2023/09/01 00:40:39;;;;;;;;;1.00;1.00;;;;;20.02;70.24;100641.53;5082108;27;66963;-67
2023/09/01 00:43:05;;;;;;;;;2.00;1.00;;;;;20.03;70.25;100642.41;5087954;27;69729;-67
2023/09/01 00:45:30;;;;;;;;;1.00;1.00;;;;;20.01;70.11;100642.50;5089410;27;53329;-67
2023/09/01 00:47:55;;;;;;;;;1.50;1.00;;;;;20.01;70.26;100637.19;5097415;27;70135;-66
2023/09/01 00:50:21;;;;;;;;;1.00;1.00;;;;;20.05;70.32;100643.16;5097836;27;68071;-66
2023/09/01 00:52:46;;;;;;;;;1.00;1.00;;;;;20.04;70.48;100644.09;5076658;27;68546;-67
2023/09/01 00:55:12;;;;;;;;;4.00;2.00;;;;;20.04;70.58;100647.63;5068394;27;45384;-67
2023/09/01 00:57:37;;;;;;;;;3.50;1.00;;;;;19.99;71.17;100644.41;5066335;27;66113;-67
2023/09/01 01:00:05;;;;;;;;;0.75;0.75;;;;;20.01;70.52;100645.16;5095612;27;60019;-67
2023/09/01 01:02:30;;;;;;;;;2.75;1.00;;;;;19.99;70.62;100647.06;5093312;27;45416;-67
2023/09/01 01:04:56;;;;;;;;;1.00;1.00;;;;;20.00;70.51;100643.44;5080730;27;46244;-67
2023/09/01 01:07:40;;;;;;;;;1.00;1.00;;;;;20.00;70.27;100640.78;5079562;27;45313;-67
2023/09/01 01:10:35;;;;;;;;;1.50;0.50;;;;;19.99;70.27;100643.53;5079921;28;45529;-67
2023/09/01 01:13:10;;;;;;;;;1.00;1.00;;;;;19.97;70.39;100646.31;5074154;28;45291;-67
2023/09/01 01:15:35;;;;;;;;;1.00;1.00;;;;;19.97;70.56;100642.81;5056599;28;45701;-67
2023/09/01 01:18:07;;;;;;;;;1.00;1.00;;;;;19.94;70.76;100637.69;5063594;28;64757;-67
2023/09/01 01:20:38;;;;;;;;;2.00;1.00;;;;;19.92;70.63;100630.69;5076529;27;45252;-67
2023/09/01 01:23:14;;;;;;;;;0.25;0.00;;;;;19.94;70.79;100641.22;5074541;28;45341;-66
2023/09/01 01:25:47;;;;;;;;;1.00;0.00;;;;;19.93;70.78;100636.84;5074648;27;45945;-67
2023/09/01 01:28:13;;;;;;;;;4.75;1.25;;;;;19.94;70.79;100635.03;5064497;27;45352;-66
2023/09/01 01:30:39;;;;;;;;;2.75;1.00;;;;;19.94;70.64;100630.59;5080070;28;45326;-66
2023/09/01 01:33:13;;;;;;;;;0.00;0.00;;;;;19.94;70.51;100627.06;5079928;27;45459;-66
2023/09/01 01:36:01;;;;;;;;;0.25;0.25;;;;;19.92;70.43;100633.34;5072550;27;46172;-66
2023/09/01 01:38:29;;;;;;;;;1.00;1.00;;;;;19.92;70.34;100630.69;5079534;27;45304;-66
2023/09/01 01:41:10;;;;;;;;;1.00;1.00;;;;;19.94;70.47;100621.75;5078456;27;51864;-67
2023/09/01 01:43:37;;;;;;;;;2.00;1.00;;;;;19.91;70.33;100617.53;5097571;27;45429;-66
2023/09/01 01:46:04;;;;;;;;;0.50;0.00;;;;;19.90;70.33;100627.31;5079986;27;45493;-66
2023/09/01 01:48:29;;;;;;;;;1.00;1.00;;;;;19.92;70.49;100616.56;5081308;28;45239;-67
2023/09/01 01:50:55;;;;;;;;;2.00;1.00;;;;;19.92;70.50;100620.06;5079990;27;45240;-67
2023/09/01 01:53:22;;;;;;;;;1.00;0.25;;;;;19.93;70.06;100626.22;5081129;27;45605;-67
2023/09/01 01:55:47;;;;;;;;;1.00;0.75;;;;;19.94;69.90;100619.97;5092633;27;48220;-67
2023/09/01 01:58:13;;;;;;;;;1.00;1.00;;;;;19.91;70.47;100618.38;5080715;27;72064;-67
2023/09/01 02:00:38;;;;;;;;;2.00;0.00;;;;;19.89;70.22;100619.44;5069802;27;67355;-67
2023/09/01 02:03:04;;;;;;;;;1.00;1.00;;;;;19.88;69.90;100615.94;5069738;28;66642;-67
2023/09/01 02:05:29;;;;;;;;;1.75;0.75;;;;;19.89;69.95;100622.94;5092564;27;47508;-67
2023/09/01 02:07:55;;;;;;;;;1.00;1.00;;;;;19.91;69.63;100620.19;5074889;28;73167;-67
2023/09/01 02:10:20;;;;;;;;;1.00;0.75;;;;;19.92;69.83;100620.06;5075728;27;45564;-66
2023/09/01 02:12:47;;;;;;;;;1.00;0.75;;;;;19.92;69.83;100622.72;5080799;27;45333;-67
2023/09/01 02:15:12;;;;;;;;;0.00;0.00;;;;;19.91;69.62;100618.38;5062369;28;46300;-66
2023/09/01 02:17:38;;;;;;;;;2.00;1.25;;;;;19.91;69.61;100625.50;5050123;28;72537;-67
2023/09/01 02:20:16;;;;;;;;;0.25;0.25;;;;;19.89;69.63;100617.63;5078700;27;45349;-67
2023/09/01 02:22:42;;;;;;;;;0.00;0.00;;;;;19.88;69.43;100615.06;5063744;27;45438;-67
2023/09/01 02:25:08;;;;;;;;;3.75;0.25;;;;;19.87;68.99;100616.88;5072022;27;46410;-67
2023/09/01 02:27:33;;;;;;;;;0.00;0.00;;;;;19.85;69.08;100618.78;5081415;27;45851;-67
2023/09/01 02:29:59;;;;;;;;;0.00;0.00;;;;;19.85;69.13;100612.63;5076393;27;60167;-67
2023/09/01 02:32:24;;;;;;;;;1.00;1.00;;;;;19.83;69.29;100604.78;5072616;28;68400;-66
2023/09/01 02:34:49;;;;;;;;;2.50;0.00;;;;;19.78;69.27;100619.28;5072152;27;70708;-67
2023/09/01 02:37:15;;;;;;;;;1.00;1.00;;;;;19.78;68.83;100611.31;5078697;27;73079;-66
2023/09/01 02:39:40;;;;;;;;;0.00;0.00;;;;;19.78;69.14;100613.97;5079809;27;67361;-67
2023/09/01 02:42:05;;;;;;;;;0.75;0.75;;;;;19.77;69.14;100607.00;5085643;27;64749;-67
2023/09/01 02:44:31;;;;;;;;;0.50;0.50;;;;;19.72;68.83;100605.47;5082654;27;45465;-67
2023/09/01 02:46:56;;;;;;;;;0.50;0.25;;;;;19.71;69.41;100606.41;5078712;28;70818;-67
2023/09/01 02:49:21;;;;;;;;;0.50;0.00;;;;;19.69;69.23;100604.81;5079720;27;62405;-67
2023/09/01 02:51:48;;;;;;;;;0.00;0.00;;;;;19.67;69.04;100607.59;5073124;27;53793;-68
2023/09/01 02:54:14;;;;;;;;;1.00;1.00;;;;;19.67;69.15;100607.59;5069827;28;45316;-66
2023/09/01 02:56:39;;;;;;;;;1.25;1.00;;;;;19.69;69.43;100605.66;5074876;27;45263;-67
2023/09/01 02:59:04;;;;;;;;;0.00;0.00;;;;;19.69;69.04;100610.97;5073138;28;59986;-66
2023/09/01 03:01:30;;;;;;;;;2.75;1.00;;;;;19.69;68.75;100626.06;5073077;28;69600;-67
2023/09/01 03:03:56;;;;;;;;;1.00;0.00;;;;;19.67;68.80;100626.16;5073726;27;45339;-67
2023/09/01 03:06:21;;;;;;;;;0.50;0.00;;;;;19.66;68.81;100620.97;5078639;27;45404;-67
2023/09/01 03:08:47;;;;;;;;;0.50;0.00;;;;;19.63;69.11;100618.50;5073213;27;48292;-66
2023/09/01 03:11:12;;;;;;;;;0.75;0.00;;;;;19.59;69.27;100617.84;5067629;27;65064;-67
2023/09/01 03:13:37;;;;;;;;;2.00;0.00;;;;;19.57;69.02;100627.72;5079754;28;61998;-67
2023/09/01 03:16:04;;;;;;;;;2.50;1.00;;;;;19.53;69.08;100626.25;5067096;28;45436;-66
2023/09/01 03:18:29;;;;;;;;;2.00;0.00;;;;;19.51;69.54;100626.34;5078960;27;45480;-67
2023/09/01 03:20:56;;;;;;;;;2.50;0.50;;;;;19.48;69.17;100613.25;5069306;27;67068;-66
2023/09/01 03:23:22;;;;;;;;;1.00;1.00;;;;;19.50;69.42;100618.47;5074868;27;46309;-66
2023/09/01 03:25:55;;;;;;;;;1.00;0.50;;;;;19.47;69.72;100610.72;5072723;27;45231;-66
2023/09/01 03:28:20;;;;;;;;;1.00;0.00;;;;;19.46;69.11;100612.53;5074148;27;45506;-66
2023/09/01 03:30:45;;;;;;;;;1.00;0.00;;;;;19.46;69.21;100615.16;5069028;27;45331;-68
2023/09/01 03:33:11;;;;;;;;;1.00;1.00;;;;;19.44;69.69;100617.09;5072657;27;70813;-68
2023/09/01 03:35:37;;;;;;;;;0.00;0.00;;;;;19.43;69.57;100612.72;5072484;27;68843;-66
2023/09/01 03:38:03;;;;;;;;;3.00;0.25;;;;;19.44;69.26;100609.13;5076200;28;45351;-67
2023/09/01 03:40:28;;;;;;;;;2.50;0.00;;;;;19.44;69.30;100609.13;5077121;27;45465;-66
2023/09/01 03:42:54;;;;;;;;;0.00;0.00;;;;;19.42;69.64;100607.50;5078112;27;69176;-67
2023/09/01 03:45:19;;;;;;;;;3.00;0.50;;;;;19.43;69.53;100623.31;5071779;28;45363;-67
2023/09/01 03:47:44;;;;;;;;;0.50;0.00;;;;;19.42;69.71;100612.81;5064871;27;45289;-67
2023/09/01 03:50:10;;;;;;;;;2.00;1.00;;;;;19.40;69.72;100610.25;5068162;28;67581;-66
2023/09/01 03:52:35;;;;;;;;;3.50;0.50;;;;;19.43;69.66;100610.06;5075736;27;46018;-67
2023/09/01 03:55:00;;;;;;;;;1.00;0.75;;;;;19.43;69.40;100615.38;5075066;28;54632;-67
2023/09/01 03:57:25;;;;;;;;;1.00;1.00;;;;;19.41;69.71;100608.47;5079154;27;54913;-68
2023/09/01 03:59:51;;;;;;;;;3.00;1.00;;;;;19.42;69.59;100607.50;5053262;28;63388;-68
2023/09/01 04:02:16;;;;;;;;;2.50;0.00;;;;;19.41;69.55;100608.47;5089591;27;45914;-67
2023/09/01 04:04:41;;;;;;;;;1.00;1.00;;;;;19.40;69.30;100610.25;5078809;28;74183;-68
2023/09/01 04:07:08;;;;;;;;;2.00;1.00;;;;;19.39;69.96;100608.56;5068840;28;52038;-67
2023/09/01 04:09:33;;;;;;;;;1.00;0.00;;;;;19.38;69.72;100603.34;5063660;28;45303;-67
2023/09/01 04:11:58;;;;;;;;;0.00;0.00;;;;;19.35;69.84;100610.56;5075899;27;74678;-67
2023/09/01 04:14:24;;;;;;;;;0.25;0.25;;;;;19.34;69.47;100597.41;5083644;27;45621;-67
2023/09/01 04:16:50;;;;;;;;;1.00;1.00;;;;;19.34;70.04;100600.06;5082789;27;45439;-66
2023/09/01 04:19:15;;;;;;;;;1.00;1.00;;;;;19.32;69.80;100594.00;5062241;28;45346;-66
2023/09/01 04:21:40;;;;;;;;;1.50;0.50;;;;;19.32;69.83;100597.50;5066394;27;47059;-67
2023/09/01 04:24:06;;;;;;;;;1.00;0.00;;;;;19.32;69.57;100594.00;5071444;28;58689;-66
2023/09/01 04:26:31;;;;;;;;;2.25;0.75;;;;;19.31;70.67;100595.78;5076042;27;45323;-67
2023/09/01 04:28:57;;;;;;;;;0.00;0.00;;;;;19.27;70.21;100590.81;5068258;28;68833;-67
2023/09/01 04:31:29;;;;;;;;;1.50;0.25;;;;;19.27;70.32;100588.16;5085228;27;45727;-66
2023/09/01 04:33:55;;;;;;;;;1.00;1.00;;;;;19.25;70.14;100584.75;5079166;28;45299;-67
2023/09/01 04:36:20;;;;;;;;;4.25;1.00;;;;;19.25;70.30;100595.38;5071882;28;45507;-67
2023/09/01 04:38:46;;;;;;;;;2.00;1.75;;;;;19.24;70.46;100594.50;5074825;28;45390;-67
2023/09/01 04:41:11;;;;;;;;;1.00;1.00;;;;;19.22;70.42;100599.06;5070889;27;68884;-67
2023/09/01 04:43:37;;;;;;;;;2.00;1.00;;;;;19.19;70.63;100599.25;5077781;27;64353;-66
2023/09/01 04:46:02;;;;;;;;;0.25;0.25;;;;;19.16;70.72;100597.66;5085413;27;45349;-67
2023/09/01 04:48:28;;;;;;;;;1.00;1.00;;;;;19.14;70.23;100604.00;5094048;27;45854;-68
2023/09/01 04:50:53;;;;;;;;;2.25;0.25;;;;;19.11;70.89;100597.09;5073382;27;46439;-67
2023/09/01 04:53:20;;;;;;;;;1.00;0.00;;;;;19.09;71.50;100601.66;5092568;27;45449;-68
2023/09/01 04:55:45;;;;;;;;;2.75;1.00;;;;;19.09;70.83;100599.00;5081940;27;45482;-68
2023/09/01 04:58:11;;;;;;;;;2.25;1.75;;;;;19.09;71.08;100603.47;5066954;28;45225;-67
2023/09/01 05:00:37;;;;;;;;;0.00;0.00;;;;;19.10;71.21;100610.47;5068283;27;46567;-68
2023/09/01 05:03:02;;;;;;;;;2.75;1.25;;;;;19.09;71.18;100606.97;5081238;27;45445;-66
2023/09/01 05:05:28;;;;;;;;;1.00;1.00;;;;;19.12;71.00;100612.09;5079931;27;45338;-66
2023/09/01 05:07:53;;;;;;;;;0.75;0.75;;;;;19.14;70.91;100612.81;5078985;27;56698;-66
2023/09/01 05:10:18;;;;;;;;;1.75;1.00;;;;;19.16;70.79;100607.44;5079922;27;70059;-66
2023/09/01 05:12:44;;;;;;;;;1.00;1.00;;;;;19.18;71.10;100610.81;5076114;27;45458;-66
2023/09/01 05:15:09;;;;;;;;;1.25;1.25;;;;;19.18;70.88;100610.81;5081756;27;61149;-67
2023/09/01 05:17:35;;;;;;;;;0.25;0.00;;;;;19.20;70.82;100605.44;5073356;27;45473;-67
2023/09/01 05:20:00;;;;;;;;;1.00;1.00;;;;;19.22;71.15;100614.13;5071090;28;46105;-67
2023/09/01 05:22:26;;;;;;;;;1.25;1.00;;;;;19.18;70.89;100600.22;5082032;27;45493;-67
2023/09/01 05:24:53;;;;;;;;;1.00;1.00;;;;;19.24;70.96;100604.25;5081420;27;45381;-67
2023/09/01 05:27:19;;;;;;;;;2.00;2.00;;;;;19.25;71.11;100608.63;5076911;27;45306;-67
2023/09/01 05:29:45;;;;;;;;;2.00;0.75;;;;;19.25;70.64;100595.38;5071381;27;46063;-67
2023/09/01 05:32:11;;;;;;;;;0.75;0.25;;;;;19.27;71.20;100596.09;5078037;27;45635;-67
2023/09/01 05:34:36;;;;;;;;;1.00;1.00;;;;;19.26;71.58;100597.03;5071704;27;45576;-66
2023/09/01 05:37:02;;;;;;;;;0.50;0.50;;;;;19.27;71.17;100598.75;5078365;27;65268;-67
2023/09/01 05:39:28;;;;;;;;;1.00;1.00;;;;;19.28;71.18;100605.75;5080279;27;45311;-66
2023/09/01 05:41:53;;;;;;;;;1.00;1.00;;;;;19.30;71.56;100602.06;5072995;27;45235;-66
2023/09/01 05:44:20;;;;;;;;;1.00;1.00;;;;;19.32;70.94;100607.28;5079753;28;45260;-67
2023/09/01 05:46:45;;;;;;;;;1.25;1.00;;;;;19.33;70.92;100614.25;5079836;27;45380;-67
2023/09/01 05:49:10;;;;;;;;;3.00;1.00;;;;;19.34;71.02;100618.63;5079351;28;45583;-67
2023/09/01 05:51:36;;;;;;;;;0.75;0.75;;;;;19.33;71.30;100625.72;5080008;27;69220;-67
2023/09/01 05:54:01;;;;;;;;;0.75;0.75;;;;;19.33;71.12;100619.56;5076450;27;61207;-67
2023/09/01 05:56:26;;;;;;;;;2.00;1.00;;;;;19.31;71.42;100624.97;5077604;27;45530;-67
2023/09/01 05:58:52;;;;;;;;;0.00;0.00;;;;;19.33;71.24;100635.50;5079979;27;47958;-66
2023/09/01 06:01:17;;;;;;;;;1.00;1.00;;;;;19.33;71.02;100633.69;5068282;27;45360;-67
2023/09/01 06:03:42;;;;;;;;;3.00;0.75;;;;;19.34;71.13;100637.22;5079779;27;59383;-67
2023/09/01 06:06:09;;;;;;;;;1.00;0.75;;;;;19.35;71.98;100636.25;5100603;27;45804;-67
2023/09/01 06:08:34;;;;;;;;;1.75;1.00;;;;;19.35;71.19;100647.72;5074525;27;46205;-67
2023/09/01 06:11:04;;;;;;;;;0.00;0.00;;;;;19.37;71.28;100646.75;5080732;28;45404;-67
2023/09/01 06:13:29;;;;;;;;;1.00;1.00;;;;;19.37;71.74;100649.41;5083911;27;45477;-67
2023/09/01 06:15:55;;;;;;;;;1.00;1.00;;;;;19.39;71.37;100655.47;5069693;28;57715;-67
2023/09/01 06:18:20;;;;;;;;;1.00;1.00;;;;;19.40;71.49;100649.22;5078222;28;45348;-67
2023/09/01 06:20:45;;;;;;;;;1.00;1.00;;;;;19.40;71.66;100658.03;5074778;28;45334;-67
2023/09/01 06:23:11;;;;;;;;;3.00;1.00;;;;;19.41;71.52;100653.59;5073862;28;56063;-67
2023/09/01 06:25:36;;;;;;;;;0.50;0.50;;;;;19.42;71.93;100665.88;5064010;28;69321;-67
2023/09/01 06:28:01;;;;;;;;;2.00;1.00;;;;;19.44;71.49;100663.97;5090132;27;45564;-67
2023/09/01 06:30:27;;;;;;;;;1.00;0.00;;;;;19.45;71.38;100660.38;5079900;27;45265;-67
2023/09/01 06:32:52;;;;;;;;;2.00;1.00;;;;;19.48;71.37;100665.50;5069220;28;56544;-67
2023/09/01 06:35:17;;;;;;;;;2.75;1.00;;;;;19.51;71.22;100663.50;5076524;27;69105;-68
2023/09/01 06:37:43;;;;;;;;;3.00;1.00;;;;;19.59;71.89;100660.31;5067865;27;46837;-67
2023/09/01 06:40:09;;;;;;;;;2.25;1.00;;;;;19.66;71.37;100658.97;5080434;27;63818;-67
2023/09/01 06:42:34;;;;;;;;;1.75;1.00;;;;;19.71;70.98;100671.94;5081135;27;45279;-67
2023/09/01 06:44:59;;;;;;;;;0.75;0.75;;;;;19.75;71.02;100665.50;5062739;28;68210;-67
2023/09/01 06:47:25;;;;;;;;;0.75;0.00;;;;;19.79;70.99;100658.19;5061985;28;46330;-67
2023/09/01 06:49:50;;;;;;;;;1.00;1.00;;;;;19.82;70.86;100658.81;5073258;28;64791;-66
2023/09/01 06:52:16;;;;;;;;;0.00;0.00;;;;;19.86;70.60;100657.66;5068669;28;69259;-67
2023/09/01 06:54:41;;;;;;;;;1.75;1.00;;;;;19.88;70.78;100660.22;5077264;28;45459;-67
2023/09/01 06:57:07;;;;;;;;;2.75;1.00;;;;;19.89;71.25;100664.59;5070513;28;75801;-66
2023/09/01 06:59:32;;;;;;;;;0.00;0.00;;;;;19.87;70.46;100654.06;5069754;27;45418;-66
2023/09/01 07:01:57;;;;;;;;;0.50;0.50;;;;;19.89;70.58;100662.78;5080036;28;45371;-67
2023/09/01 07:04:25;;;;;;;;;0.00;0.00;;;;;19.90;71.34;100666.28;5079288;27;63397;-66
2023/09/01 07:06:50;;;;;;;;;1.00;0.00;;;;;19.88;70.91;100668.19;5072329;28;46564;-67
2023/09/01 07:09:15;;;;;;;;;1.25;1.00;;;;;19.94;71.24;100666.91;5075147;27;68917;-67
2023/09/01 07:11:41;;;;;;;;;2.00;0.25;;;;;19.96;71.21;100662.38;5079406;27;45405;-67
2023/09/01 07:14:06;;;;;;;;;1.00;1.00;;;;;20.00;71.92;100669.16;5075514;27;50612;-67
2023/09/01 07:16:31;;;;;;;;;1.25;0.75;;;;;19.99;71.20;100657.69;5079632;27;46244;-67
2023/09/01 07:18:57;;;;;;;;;1.50;1.00;;;;;20.02;71.97;100673.41;5070764;27;45273;-67
2023/09/01 07:21:22;;;;;;;;;1.25;0.00;;;;;20.01;71.12;100670.84;5080073;27;55931;-67
2023/09/01 07:23:48;;;;;;;;;2.00;0.25;;;;;20.01;71.89;100662.88;5078200;27;69531;-66
2023/09/01 07:26:14;;;;;;;;;1.50;0.00;;;;;20.01;71.47;100679.69;5080074;27;47314;-66
2023/09/01 07:28:39;;;;;;;;;3.50;1.00;;;;;19.98;71.92;100679.91;5077979;27;45283;-65
2023/09/01 07:31:10;;;;;;;;;1.00;0.25;;;;;19.95;71.73;100668.63;5088804;27;48226;-66
2023/09/01 07:33:36;;;;;;;;;1.75;0.50;;;;;20.00;72.63;100680.63;5079282;27;45631;-67
2023/09/01 07:36:02;;;;;;;;;0.00;0.00;;;;;20.01;72.32;100678.81;5072694;28;45597;-66
2023/09/01 07:38:27;;;;;;;;;0.00;0.00;;;;;19.99;73.10;100681.63;5072927;27;45344;-67
2023/09/01 07:40:52;;;;;;;;;2.25;1.50;;;;;19.96;72.57;100680.97;5072258;27;52931;-66
2023/09/01 07:43:18;;;;;;;;;4.50;1.00;;;;;19.95;72.58;100684.56;5068386;28;71413;-66
2023/09/01 07:45:43;;;;;;;;;3.00;2.00;;;;;19.94;72.67;100688.16;5071829;28;45607;-66
2023/09/01 07:48:09;;;;;;;;;1.25;0.75;;;;;19.94;72.63;100686.38;5075538;27;61299;-66
2023/09/01 07:50:34;;;;;;;;;0.75;0.75;;;;;19.96;73.24;100687.13;5063262;28;45427;-66
2023/09/01 07:53:00;;;;;;;;;2.25;1.00;;;;;19.99;74.21;100683.41;5066971;28;51342;-67
2023/09/01 07:55:26;;;;;;;;;3.25;1.00;;;;;20.01;73.44;100682.34;5074101;28;54010;-66
2023/09/01 07:57:51;;;;;;;;;0.00;0.00;;;;;20.05;73.66;100683.84;5076026;27;45472;-66
2023/09/01 08:00:17;;;;;;;;;2.00;0.00;;;;;20.13;73.38;100677.16;5078824;27;45360;-67
2023/09/01 08:02:43;;;;;;;;;1.50;0.00;;;;;20.18;73.53;100683.84;5078713;28;45400;-67
2023/09/01 08:05:08;;;;;;;;;1.00;0.75;;;;;20.20;73.10;100679.31;5079971;27;46241;-67
2023/09/01 08:07:33;;;;;;;;;1.00;1.00;;;;;20.28;73.19;100674.28;5074703;27;45611;-67
2023/09/01 08:09:59;;;;;;;;;1.25;1.00;;;;;20.30;72.49;100682.16;5073030;28;67013;-66
2023/09/01 08:12:27;;;;;;;;;0.75;0.25;;;;;20.32;72.68;100690.88;5078475;27;72413;-67
2023/09/01 08:14:52;;;;;;;;;1.00;0.00;;;;;20.34;72.66;100686.31;5094204;27;47476;-66
2023/09/01 08:17:17;;;;;;;;;0.50;0.50;;;;;20.40;72.40;100690.38;5072605;28;65677;-67
2023/09/01 08:19:49;;;;;;;;;1.75;1.00;;;;;20.44;72.31;100691.84;5079489;28;45209;-67
2023/09/01 08:22:16;;;;;;;;;0.25;0.25;;;;;20.47;71.93;100687.16;5079539;27;45514;-66
2023/09/01 08:24:41;;;;;;;;;1.00;0.25;;;;;20.45;72.60;100694.41;5069988;28;46885;-66
2023/09/01 08:27:06;;;;;;;;;2.00;0.00;;;;;20.46;71.89;100684.63;5070246;28;45406;-66
2023/09/01 08:29:32;;;;;;;;;3.00;1.75;;;;;20.49;71.72;100689.72;5095274;27;45373;-67
2023/09/01 08:31:57;;;;;;;;;2.75;1.25;;;;;20.54;72.06;100692.91;5074345;27;45864;-67
2023/09/01 08:34:23;;;;;;;;;0.75;0.75;;;;;20.60;71.90;100692.47;5071660;27;72516;-67
2023/09/01 08:36:48;;;;;;;;;1.50;1.50;;;;;20.63;71.42;100697.63;5077039;27;45259;-67
2023/09/01 08:39:15;;;;;;;;;3.00;1.00;;;;;20.61;71.53;100695.97;5076061;28;66734;-67
2023/09/01 08:41:41;;;;;;;;;1.00;1.00;;;;;20.64;71.36;100693.16;5096628;27;45291;-67
2023/09/01 08:44:07;;;;;;;;;1.25;1.25;;;;;20.63;70.88;100694.97;5074875;28;45398;-67
2023/09/01 08:46:34;;;;;;;;;34.75;29.75;;;;;20.72;70.97;100698.78;5077881;27;66362;-66
2023/09/01 08:48:59;;;;;;;;;65.50;52.00;;;;;20.80;71.21;100683.13;5067601;27;45405;-66
2023/09/01 08:51:25;;;;;;;;;4.00;4.00;;;;;20.90;70.59;100691.31;5079244;27;70966;-66
2023/09/01 08:53:50;;;;;;;;;2.75;1.50;;;;;21.01;69.88;100690.53;5073490;27;45526;-67
2023/09/01 08:56:15;;;;;;;;;3.75;0.75;;;;;21.09;69.52;100687.31;5072166;28;71803;-66
2023/09/01 08:58:41;;;;;;;;;2.75;0.25;;;;;21.15;69.79;100698.38;5081903;27;62555;-67
2023/09/01 09:01:07;;;;;;;;;1.50;1.00;;;;;21.23;69.65;100697.84;5076712;27;45209;-67
2023/09/01 09:03:33;;;;;;;;;0.00;0.00;;;;;21.35;68.85;100688.94;5074818;27;45303;-67
2023/09/01 09:05:59;;;;;;;;;0.75;0.75;;;;;21.43;68.40;100685.72;5069786;27;66744;-66
2023/09/01 09:08:24;;;;;;;;;0.75;0.75;;;;;21.51;68.33;100706.50;5091023;27;45282;-66
2023/09/01 09:10:50;;;;;;;;;1.00;1.00;;;;;21.52;68.34;100698.41;5079687;28;61278;-67
2023/09/01 09:13:26;;;;;;;;;2.00;0.00;;;;;21.54;67.83;100701.78;5071999;27;45718;-67
2023/09/01 09:16:17;;;;;;;;;2.75;1.75;;;;;21.56;68.19;100702.53;5079825;28;45666;-67
2023/09/01 09:18:45;;;;;;;;;0.00;0.00;;;;;21.65;67.65;100698.34;5072713;28;45288;-67
2023/09/01 09:21:25;;;;;;;;;2.00;1.00;;;;;21.77;67.45;100689.44;5075265;28;45349;-67
2023/09/01 09:23:51;;;;;;;;;4.00;2.00;;;;;21.84;66.51;100697.81;5076492;27;47025;-68
2023/09/01 09:26:24;;;;;;;;;2.00;2.00;;;;;21.96;66.70;100696.06;5078159;27;45721;-66
2023/09/01 09:28:49;;;;;;;;;1.75;1.75;;;;;22.07;66.26;100705.91;5075320;27;45323;-67
2023/09/01 09:31:15;;;;;;;;;5.50;1.00;;;;;22.26;66.47;100713.34;5076940;27;45280;-66
2023/09/01 09:33:42;;;;;;;;;45.25;35.50;;;;;22.42;65.39;100705.03;5075460;27;46020;-66
2023/09/01 09:36:07;;;;;;;;;6.00;4.00;;;;;22.47;64.16;100709.06;5078822;27;45355;-66
2023/09/01 09:38:43;;;;;;;;;3.00;3.00;;;;;22.54;64.74;100704.06;5076577;27;59573;-66
2023/09/01 09:41:08;;;;;;;;;3.00;2.00;;;;;22.62;64.13;100708.81;5075630;27;45497;-67
2023/09/01 09:43:49;;;;;;;;;4.25;2.75;;;;;22.73;64.76;100709.69;5082090;27;45380;-67
2023/09/01 09:46:16;;;;;;;;;1.00;1.00;;;;;22.80;63.45;100714.53;5073665;28;45874;-67
2023/09/01 09:48:42;;;;;;;;;1.00;1.00;;;;;22.86;63.50;100709.56;5077699;27;45291;-67
2023/09/01 09:51:08;;;;;;;;;1.00;1.00;;;;;23.00;63.09;100712.94;5090005;27;45411;-68
2023/09/01 09:53:35;;;;;;;;;4.00;1.75;;;;;;;;5079906;27;45864;-66
2023/09/01 09:56:17;;;;;;;;;3.50;2.00;;;;;23.08;60.98;100708.72;5081613;27;45319;-67
2023/09/01 09:58:45;;;;;;;;;3.75;2.75;;;;;23.11;61.82;100723.66;5073686;27;45323;-66
2023/09/01 10:01:15;;;;;;;;;4.75;3.25;;;;;23.16;61.59;100726.81;5078576;28;45277;-67
2023/09/01 10:03:40;;;;;;;;;4.75;3.00;;;;;23.22;61.37;100728.97;5080401;28;45466;-67
2023/09/01 10:06:07;;;;;;;;;1.50;1.00;;;;;23.29;60.82;100729.31;5077493;27;68225;-67
2023/09/01 10:08:33;;;;;;;;;4.25;3.25;;;;;23.34;61.37;100712.91;5074224;28;45658;-67
2023/09/01 10:10:59;;;;;;;;;2.00;2.00;;;;;23.37;59.24;100729.53;5076419;27;51168;-67
2023/09/01 10:13:25;;;;;;;;;29.75;25.00;;;;;23.35;61.02;100728.81;5049706;28;73592;-66
2023/09/01 10:15:51;;;;;;;;;11.50;11.50;;;;;23.41;60.53;100724.78;5075181;28;64704;-67
2023/09/01 10:18:17;;;;;;;;;2.00;2.00;;;;;23.45;58.57;100721.75;5080613;28;60071;-67
2023/09/01 10:20:43;;;;;;;;;2.75;2.50;;;;;23.43;59.40;100714.84;5080853;27;45382;-67
2023/09/01 10:23:10;;;;;;;;;2.00;2.00;;;;;23.34;59.06;100720.91;5072535;27;46175;-66
2023/09/01 10:25:36;;;;;;;;;2.25;2.25;;;;;23.24;59.30;100720.84;5080720;27;45314;-67
2023/09/01 10:28:11;;;;;;;;;2.25;2.00;;;;;23.17;60.05;100720.47;5081411;27;45520;-68
2023/09/01 10:30:41;;;;;;;;;5.25;3.25;;;;;23.17;60.55;100720.47;5063005;28;45431;-67
2023/09/01 10:33:16;;;;;;;;;5.50;2.75;;;;;23.17;59.92;100717.81;5080440;28;46200;-67
2023/09/01 10:35:42;;;;;;;;;0.75;0.75;;;;;23.17;60.05;100722.31;5074741;27;45290;-67
2023/09/01 10:38:13;;;;;;;;;3.75;2.00;;;;;23.18;59.90;100718.63;5084158;27;45500;-67
2023/09/01 10:40:52;;;;;;;;;6.50;2.50;;;;;23.21;59.25;100724.59;5070273;27;45869;-66
2023/09/01 10:43:33;;;;;;;;;2.50;2.00;;;;;23.22;59.56;100725.47;5074371;27;45726;-67
2023/09/01 10:46:16;;;;;;;;;1.50;1.50;;;;;23.27;59.39;100723.25;5064412;28;45307;-68
2023/09/01 10:48:49;;;;;;;;;47.50;35.75;;;;;23.29;59.40;100726.66;5063958;28;45361;-67
2023/09/01 10:51:17;;;;;;;;;40.25;30.00;;;;;23.31;59.37;100728.22;5075845;28;45447;-67
2023/09/01 10:53:42;;;;;;;;;4.75;3.00;;;;;23.40;59.63;100721.28;5062060;27;45429;-67
2023/09/01 10:56:10;;;;;;;;;5.25;3.00;;;;;23.56;59.62;100725.38;5076024;27;45332;-67
2023/09/01 10:58:49;;;;;;;;;2.50;1.25;;;;;23.65;59.41;100719.28;5073510;28;45442;-66
2023/09/01 11:01:30;;;;;;;;;3.50;2.00;;;;;23.67;58.20;100720.00;5079474;27;45347;-66
2023/09/01 11:04:16;;;;;;;;;1.25;1.00;;;;;23.71;57.82;100724.13;5071968;28;45453;-67
2023/09/01 11:06:56;;;;;;;;;0.50;0.25;;;;;23.76;58.49;100718.38;5078656;27;45659;-66
2023/09/01 11:09:34;;;;;;;;;1.00;1.00;;;;;23.82;57.63;100726.78;5082635;27;45530;-66
2023/09/01 11:12:07;;;;;;;;;1.00;0.50;;;;;23.88;57.44;100717.38;5074417;28;45301;-66
2023/09/01 11:14:34;;;;;;;;;2.00;1.00;;;;;23.93;57.15;100719.69;5068988;27;45444;-67
2023/09/01 11:17:03;;;;;;;;;0.25;0.25;;;;;23.89;57.41;100719.09;5071197;27;45504;-67
2023/09/01 11:19:32;;;;;;;;;32.25;26.25;;;;;23.85;56.94;100722.97;5060491;28;45450;-67
2023/09/01 11:21:58;;;;;;;;;15.00;12.25;;;;;23.76;56.83;100723.72;5074002;28;45621;-67
2023/09/01 11:24:23;;;;;;;;;0.50;0.50;;;;;23.68;57.72;100717.19;5066435;27;45335;-66